Time;durP1;ratioP1;P1;durP2;ratioP2;P2;SDS_P1;SDS_P2;PMS_P1;PMS_P2;Temp;Humidity;BMP_temperature;BMP_pressure;BME280_temperature;BME280_humidity;BME280_pressure;Samples;Min_cycle;Max_cycle;Signal;HPM_P1;HPM_P2
2023/09/06 00:01:39;;;;;;;;;;;;;;;18.11;58.76;98497.75;5045674;28;19940;-70
2023/09/06 00:04:11;;;;;;;;;;;;;;;18.05;58.71;98508.97;5060867;28;20737;-70
2023/09/06 00:06:39;;;;;;;;;;;;;;;18.11;58.64;98500.50;5056033;28;19932;-70
2023/09/06 00:09:09;;;;;;;;;;;;;;;18.05;58.70;98499.94;5053623;28;19935;-70
2023/09/06 00:11:39;;;;;;;;;;;;;;;17.98;58.76;98499.72;5052794;28;19929;-70
2023/09/06 00:14:12;;;;;;;;;;;;;;;17.97;58.66;98498.94;5046845;28;20008;-70
2023/09/06 00:16:40;;;;;;;;;;;;;;;17.87;59.07;98496.66;5046509;28;19974;-70
2023/09/06 00:19:07;;;;;;;;;;;;;;;17.80;58.98;98494.50;5059205;28;19928;-70
2023/09/06 00:21:40;;;;;;;;;;;;;;;17.72;59.29;98495.38;5050146;28;19932;-70
2023/09/06 00:24:10;;;;;;;;;;;;;;;17.75;59.24;98502.16;5058086;28;19932;-70
2023/09/06 00:26:38;;;;;;;;;;;;;;;17.77;59.17;98494.38;5052202;28;20210;-70
2023/09/06 00:29:06;;;;;;;;;;;;;;;17.75;59.01;98489.22;5032585;28;19940;-70
2023/09/06 00:31:34;;;;;;;;;;;;;;;17.53;59.75;98489.66;5062037;28;19948;-70
2023/09/06 00:34:02;;;;;;;;;;;;;;;17.62;59.68;98495.81;5050906;28;19932;-70
2023/09/06 00:36:33;;;;;;;;;;;;;;;17.55;59.85;98495.59;5033358;28;19937;-71
2023/09/06 00:39:03;;;;;;;;;;;;;;;17.57;59.44;98492.50;5050952;28;19933;-71
2023/09/06 00:41:32;;;;;;;;;;;;;;;17.60;59.50;98486.31;5031420;28;20024;-71
2023/09/06 00:44:00;;;;;;;;;;;;;;;17.57;59.53;98493.28;5050822;28;19979;-70
2023/09/06 00:46:28;;;;;;;;;;;;;;;17.49;59.62;98492.28;5028340;28;19924;-70
2023/09/06 00:48:56;;;;;;;;;;;;;;;17.42;59.91;98485.75;5058790;28;20306;-70
2023/09/06 00:51:25;;;;;;;;;;;;;;;17.29;60.41;98488.47;5053270;28;19929;-70
2023/09/06 00:53:53;;;;;;;;;;;;;;;17.38;60.07;98480.13;5053166;28;19932;-70
2023/09/06 00:56:22;;;;;;;;;;;;;;;17.39;60.00;98480.94;5049416;28;19979;-70
2023/09/06 00:58:50;;;;;;;;;;;;;;;17.44;59.83;98483.47;5033158;28;20390;-70
2023/09/06 01:01:18;;;;;;;;;;;;;;;17.49;59.60;98491.47;5009075;28;20033;-69
2023/09/06 01:03:47;;;;;;;;;;;;;;;17.37;59.79;98492.28;5021971;28;20015;-70
2023/09/06 01:06:16;;;;;;;;;;;;;;;17.33;59.77;98487.81;5036593;28;19933;-70
2023/09/06 01:08:46;;;;;;;;;;;;;;;17.29;60.10;98488.47;5027542;28;19937;-70
2023/09/06 01:11:19;;;;;;;;;;;;;;;17.25;60.12;98492.25;5032965;28;19948;-70
2023/09/06 01:13:52;;;;;;;;;;;;;;;17.21;60.31;98486.66;5035705;28;19940;-70
2023/09/06 01:16:21;;;;;;;;;;;;;;;17.24;60.23;98485.16;5036207;28;19986;-70
2023/09/06 01:18:49;;;;;;;;;;;;;;;17.17;60.06;98477.47;5054261;28;19991;-70
2023/09/06 01:21:18;;;;;;;;;;;;;;;17.19;60.29;98483.41;5034841;28;19956;-70
2023/09/06 01:23:47;;;;;;;;;;;;;;;17.20;60.20;98475.97;5044702;28;19974;-70
2023/09/06 01:26:16;;;;;;;;;;;;;;;17.03;60.77;98476.97;5032430;28;20404;-70
2023/09/06 01:28:44;;;;;;;;;;;;;;;16.96;61.37;98476.75;5033494;28;19924;-70
2023/09/06 01:31:11;;;;;;;;;;;;;;;17.00;60.82;98477.69;5043733;28;19972;-70
2023/09/06 01:33:40;;;;;;;;;;;;;;;17.05;60.60;98482.97;5060980;28;19932;-70
2023/09/06 01:36:08;;;;;;;;;;;;;;;17.17;60.30;98476.69;5034523;28;19995;-70
2023/09/06 01:38:35;;;;;;;;;;;;;;;17.15;60.20;98465.22;5055826;28;19933;-70
2023/09/06 01:41:05;;;;;;;;;;;;;;;17.07;60.29;98477.91;5035204;28;19928;-70
2023/09/06 01:43:32;;;;;;;;;;;;;;;17.05;60.32;98469.22;5045979;28;20354;-70
2023/09/06 01:46:01;;;;;;;;;;;;;;;17.06;60.27;98468.09;5050876;28;20014;-70
2023/09/06 01:48:32;;;;;;;;;;;;;;;17.01;60.50;98473.78;5033911;28;19940;-70
2023/09/06 01:51:00;;;;;;;;;;;;;;;16.92;61.01;98465.63;5045269;28;19925;-70
2023/09/06 01:53:29;;;;;;;;;;;;;;;16.94;60.76;98459.84;5052193;28;19998;-70
2023/09/06 01:55:56;;;;;;;;;;;;;;;16.93;60.58;98459.00;5049022;28;20324;-70
2023/09/06 01:58:25;;;;;;;;;;;;;;;16.74;61.34;98462.28;5036755;28;19974;-70
2023/09/06 02:00:53;;;;;;;;;;;;;;;16.87;60.70;98456.81;5054369;28;19940;-70
2023/09/06 02:03:22;;;;;;;;;;;;;;;16.82;60.81;98446.84;5064102;28;20100;-69
2023/09/06 02:05:52;;;;;;;;;;;;;;;16.74;61.26;98443.06;5050479;28;20374;-70
2023/09/06 02:08:21;;;;;;;;;;;;;;;16.80;60.92;98443.66;5033118;28;20002;-70
2023/09/06 02:10:49;;;;;;;;;;;;;;;16.72;61.35;98442.63;5032389;28;20397;-70
2023/09/06 02:13:17;;;;;;;;;;;;;;;16.80;61.06;98448.34;5047492;28;20305;-70
2023/09/06 02:15:46;;;;;;;;;;;;;;;16.75;61.10;98439.19;5044225;28;19925;-70
2023/09/06 02:18:15;;;;;;;;;;;;;;;16.79;60.86;98441.25;5057793;28;19929;-69
2023/09/06 02:20:43;;;;;;;;;;;;;;;16.69;61.31;98442.47;5049490;28;20235;-70
2023/09/06 02:23:10;;;;;;;;;;;;;;;16.70;61.17;98444.06;5052628;28;19925;-70
2023/09/06 02:25:39;;;;;;;;;;;;;;;16.71;61.12;98443.75;5050632;28;19939;-70
2023/09/06 02:28:07;;;;;;;;;;;;;;;16.70;61.01;98453.09;5047252;28;19935;-70
2023/09/06 02:30:37;;;;;;;;;;;;;;;16.71;60.88;98449.22;5043740;28;19929;-70
2023/09/06 02:33:07;;;;;;;;;;;;;;;16.68;60.92;98444.41;5050075;28;19984;-70
2023/09/06 02:35:40;;;;;;;;;;;;;;;16.64;61.03;98440.72;5028739;28;19932;-70
2023/09/06 02:38:08;;;;;;;;;;;;;;;16.40;62.11;98446.09;5049746;28;19925;-70
2023/09/06 02:40:36;;;;;;;;;;;;;;;16.41;62.18;98448.53;5050319;28;19973;-70
2023/09/06 02:43:04;;;;;;;;;;;;;;;16.20;62.65;98451.28;5033805;28;20309;-70
2023/09/06 02:45:37;;;;;;;;;;;;;;;16.30;62.20;98452.00;5054491;28;19932;-70
2023/09/06 02:48:12;;;;;;;;;;;;;;;16.36;62.15;98445.19;5056064;28;19928;-70
2023/09/06 02:50:40;;;;;;;;;;;;;;;16.44;61.86;98447.03;5056309;28;19932;-70
2023/09/06 02:53:19;;;;;;;;;;;;;;;16.42;61.77;98444.66;5031218;28;19925;-70
2023/09/06 02:55:51;;;;;;;;;;;;;;;16.29;62.05;98444.91;5044792;28;20369;-70
2023/09/06 02:58:23;;;;;;;;;;;;;;;16.35;61.90;98438.09;5017805;28;19936;-70
2023/09/06 03:00:55;;;;;;;;;;;;;;;16.20;62.51;98447.75;5024666;28;19925;-70
2023/09/06 03:03:26;;;;;;;;;;;;;;;16.19;62.46;98446.94;5029389;28;19936;-70
2023/09/06 03:05:56;;;;;;;;;;;;;;;16.09;62.53;98441.88;5007838;28;19933;-70
2023/09/06 03:08:25;;;;;;;;;;;;;;;15.98;62.96;98441.47;5002743;28;19926;-70
2023/09/06 03:10:53;;;;;;;;;;;;;;;15.96;62.90;98442.91;5029109;28;19933;-70
2023/09/06 03:13:21;;;;;;;;;;;;;;;16.02;62.86;98452.53;5003660;28;19931;-70
2023/09/06 03:15:51;;;;;;;;;;;;;;;15.92;62.96;98459.22;5018443;28;20390;-70
2023/09/06 03:18:19;;;;;;;;;;;;;;;15.92;63.00;98459.22;5026175;28;19936;-70
2023/09/06 03:20:49;;;;;;;;;;;;;;;15.98;63.20;98460.66;5025272;28;19932;-70
2023/09/06 03:23:23;;;;;;;;;;;;;;;16.02;63.02;98466.25;5018881;28;19929;-70
2023/09/06 03:25:57;;;;;;;;;;;;;;;15.94;62.97;98462.44;5022693;28;19971;-70
2023/09/06 03:28:37;;;;;;;;;;;;;;;15.99;62.73;98464.19;5027882;28;19972;-70
2023/09/06 03:31:08;;;;;;;;;;;;;;;15.85;63.26;98469.13;5017938;28;20383;-70
2023/09/06 03:33:39;;;;;;;;;;;;;;;15.90;63.11;98464.25;5025390;28;19925;-70
2023/09/06 03:36:09;;;;;;;;;;;;;;;15.92;63.13;98469.38;5026277;28;20645;-69
2023/09/06 03:38:38;;;;;;;;;;;;;;;15.85;63.23;98463.63;5043539;28;20499;-70
2023/09/06 03:41:07;;;;;;;;;;;;;;;15.85;63.32;98458.94;5028391;28;20299;-70
2023/09/06 03:43:37;;;;;;;;;;;;;;;15.80;63.26;98456.41;5025854;28;19932;-69
2023/09/06 03:46:07;;;;;;;;;;;;;;;15.79;63.53;98454.00;5026998;28;19924;-69
2023/09/06 03:48:35;;;;;;;;;;;;;;;15.73;63.79;98455.34;5021265;28;19925;-70
2023/09/06 03:51:04;;;;;;;;;;;;;;;15.82;63.60;98464.28;5024790;28;19988;-70
2023/09/06 03:53:37;;;;;;;;;;;;;;;15.78;63.42;98468.84;5025528;28;19936;-70
2023/09/06 03:56:10;;;;;;;;;;;;;;;15.87;63.14;98462.19;5025546;28;19928;-69
2023/09/06 03:58:44;;;;;;;;;;;;;;;15.96;62.74;98468.38;5008776;28;20351;-69
2023/09/06 04:01:15;;;;;;;;;;;;;;;15.92;62.70;98458.41;5008844;28;19987;-70
2023/09/06 04:03:50;;;;;;;;;;;;;;;15.81;63.16;98460.75;5008692;28;19961;-70
2023/09/06 04:06:19;;;;;;;;;;;;;;;15.92;62.71;98461.16;5012864;28;19968;-70
2023/09/06 04:08:50;;;;;;;;;;;;;;;15.91;62.62;98462.31;5017359;28;19929;-70
2023/09/06 04:11:19;;;;;;;;;;;;;;;15.86;62.96;98460.56;5030242;28;19932;-70
2023/09/06 04:13:48;;;;;;;;;;;;;;;15.85;62.93;98463.63;5034866;28;19929;-70
2023/09/06 04:16:22;;;;;;;;;;;;;;;15.83;62.73;98466.72;5006612;28;19925;-70
2023/09/06 04:18:51;;;;;;;;;;;;;;;15.77;62.55;98468.03;4994956;28;19972;-70
2023/09/06 04:21:22;;;;;;;;;;;;;;;15.75;62.91;98462.06;5020006;28;19929;-70
2023/09/06 04:23:51;;;;;;;;;;;;;;;15.63;63.16;98465.53;5017558;28;19940;-70
2023/09/06 04:26:21;;;;;;;;;;;;;;;15.53;63.22;98468.63;5002322;28;19990;-70
2023/09/06 04:28:50;;;;;;;;;;;;;;;15.53;63.31;98468.63;5039437;28;20041;-69
2023/09/06 04:31:20;;;;;;;;;;;;;;;15.42;63.70;98473.66;5009015;28;19988;-70
2023/09/06 04:33:48;;;;;;;;;;;;;;;15.49;63.68;98473.13;5024072;28;20013;-70
2023/09/06 04:36:26;;;;;;;;;;;;;;;15.58;63.20;98473.91;5011047;28;19925;-70
2023/09/06 04:38:59;;;;;;;;;;;;;;;15.59;62.93;98477.44;5035105;28;19925;-70
2023/09/06 04:41:31;;;;;;;;;;;;;;;15.56;63.02;98480.88;5013339;28;19982;-70
2023/09/06 04:44:03;;;;;;;;;;;;;;;15.61;62.84;98483.41;5027241;28;20366;-70
2023/09/06 04:46:31;;;;;;;;;;;;;;;15.54;63.22;98486.66;5015867;28;20016;-70
2023/09/06 04:49:03;;;;;;;;;;;;;;;15.63;63.00;98484.72;5011906;28;19925;-70
2023/09/06 04:51:31;;;;;;;;;;;;;;;15.56;62.98;98487.13;5001176;28;19929;-70
2023/09/06 04:54:03;;;;;;;;;;;;;;;15.61;62.82;98486.16;4997089;28;20012;-70
2023/09/06 04:56:35;;;;;;;;;;;;;;;15.44;63.29;98487.00;5003367;28;19933;-69
2023/09/06 04:59:03;;;;;;;;;;;;;;;15.51;62.68;98487.31;5009366;28;19975;-69
2023/09/06 05:01:31;;;;;;;;;;;;;;;15.55;62.62;98482.78;5033285;28;19928;-69
2023/09/06 05:03:59;;;;;;;;;;;;;;;15.54;62.63;98474.91;5047981;28;19924;-65
2023/09/06 05:06:29;;;;;;;;;;;;;;;15.53;62.80;98489.72;5024724;28;20026;-69
2023/09/06 05:08:57;;;;;;;;;;;;;;;15.54;62.53;98485.84;5033809;28;19928;-69
2023/09/06 05:11:28;;;;;;;;;;;;;;;15.58;62.40;98487.59;5036329;28;19925;-69
2023/09/06 05:13:55;;;;;;;;;;;;;;;15.58;62.56;98487.59;5029178;28;19960;-69
2023/09/06 05:16:26;;;;;;;;;;;;;;;15.48;62.99;98496.19;5031853;28;19943;-69
2023/09/06 05:18:54;;;;;;;;;;;;;;;15.39;63.43;98501.72;5043731;28;20378;-69
2023/09/06 05:21:25;;;;;;;;;;;;;;;15.41;63.16;98504.13;5024420;28;19934;-69
2023/09/06 05:23:53;;;;;;;;;;;;;;;15.31;63.32;98504.47;5033023;28;20019;-69
2023/09/06 05:26:21;;;;;;;;;;;;;;;15.26;63.66;98507.41;5045547;28;19936;-69
2023/09/06 05:28:50;;;;;;;;;;;;;;;15.41;63.03;98509.59;5048946;28;19929;-69
2023/09/06 05:31:18;;;;;;;;;;;;;;;15.44;63.06;98514.41;5039570;28;19925;-69
2023/09/06 05:33:47;;;;;;;;;;;;;;;15.54;62.83;98511.28;5060866;28;20463;-69
2023/09/06 05:36:17;;;;;;;;;;;;;;;15.50;62.80;98507.63;5024408;28;19959;-67
2023/09/06 05:38:45;;;;;;;;;;;;;;;15.52;62.93;98508.09;5049219;28;19933;-69
2023/09/06 05:41:13;;;;;;;;;;;;;;;15.61;62.45;98503.38;5032714;28;19968;-70
2023/09/06 05:43:43;;;;;;;;;;;;;;;15.54;62.53;98499.53;5046547;28;20030;-69
2023/09/06 05:46:15;;;;;;;;;;;;;;;15.67;62.41;98506.78;5020682;28;20015;-70
2023/09/06 05:48:58;;;;;;;;;;;;;;;15.72;62.47;98506.59;5031918;28;20345;-69
2023/09/06 05:51:29;;;;;;;;;;;;;;;15.64;62.14;98507.41;5023420;28;20252;-70
2023/09/06 05:54:00;;;;;;;;;;;;;;;15.72;62.43;98509.31;5027340;28;19924;-70
2023/09/06 05:56:29;;;;;;;;;;;;;;;15.78;62.36;98507.19;5028410;28;19975;-70
2023/09/06 05:58:57;;;;;;;;;;;;;;;15.77;62.62;98506.41;5023213;28;19929;-69
2023/09/06 06:01:26;;;;;;;;;;;;;;;15.75;61.87;98508.66;5021883;28;19929;-69
2023/09/06 06:03:54;;;;;;;;;;;;;;;15.89;61.81;98513.91;5018360;28;19990;-68
2023/09/06 06:06:22;;;;;;;;;;;;;;;15.94;61.82;98510.97;5017697;28;19925;-68
2023/09/06 06:08:50;;;;;;;;;;;;;;;15.81;61.67;98507.31;5002447;28;19929;-68
2023/09/06 06:11:18;;;;;;;;;;;;;;;15.80;61.83;98502.19;5028814;28;19930;-68
2023/09/06 06:13:45;;;;;;;;;;;;;;;15.75;62.42;98505.09;5028614;28;19929;-69
2023/09/06 06:16:23;;;;;;;;;;;;;;;15.76;62.38;98506.72;5035000;28;19933;-69
2023/09/06 06:18:52;;;;;;;;;;;;;;;15.85;62.54;98502.78;5044032;28;19932;-70
2023/09/06 06:21:19;;;;;;;;;;;;;;;15.94;63.07;98508.22;5053799;28;19924;-69
2023/09/06 06:23:47;;;;;;;;;;;;;;;16.05;62.77;98501.22;5048431;28;19974;-70
2023/09/06 06:26:19;;;;;;;;;;;;;;;16.17;62.71;98514.19;5042036;28;20282;-72
2023/09/06 06:28:47;;;;;;;;;;;;;;;16.11;61.47;98505.38;5047563;28;19925;-72
2023/09/06 06:31:15;;;;;;;;;;;;;;;16.13;61.29;98508.56;5041080;28;19933;-72
2023/09/06 06:33:43;;;;;;;;;;;;;;;16.26;61.49;98512.22;5046505;28;19975;-72
2023/09/06 06:36:13;;;;;;;;;;;;;;;16.39;61.85;98522.09;5049749;28;20340;-71
2023/09/06 06:38:41;;;;;;;;;;;;;;;16.49;62.01;98520.88;5052138;28;20394;-71
2023/09/06 06:41:15;;;;;;;;;;;;;;;16.53;61.54;98521.84;5051144;28;19986;-71
2023/09/06 06:43:44;;;;;;;;;;;;;;;16.59;62.21;98527.91;5049225;28;21718;-72
2023/09/06 06:46:23;;;;;;;;;;;;;;;16.70;61.85;98527.16;5044506;28;19973;-71
2023/09/06 06:48:51;;;;;;;;;;;;;;;16.73;61.17;98517.50;5047508;28;19925;-72
2023/09/06 06:51:20;;;;;;;;;;;;;;;16.79;61.35;98513.41;5050255;28;19925;-71
2023/09/06 06:53:48;;;;;;;;;;;;;;;16.87;61.06;98525.44;5041768;28;19925;-71
2023/09/06 06:56:21;;;;;;;;;;;;;;;16.89;60.32;98523.16;5041601;28;19932;-72
2023/09/06 06:58:49;;;;;;;;;;;;;;;16.92;60.17;98531.50;5055239;28;19933;-71
2023/09/06 07:01:17;;;;;;;;;;;;;;;16.98;60.65;98532.09;5040851;28;19928;-71
2023/09/06 07:03:46;;;;;;;;;;;;;;;16.99;60.14;98530.94;5036048;28;20484;-70
2023/09/06 07:06:16;;;;;;;;;;;;;;;17.07;59.70;98534.75;5056483;28;20277;-72
2023/09/06 07:08:48;;;;;;;;;;;;;;;17.04;58.95;98538.97;5046410;28;19925;-71
2023/09/06 07:11:16;;;;;;;;;;;;;;;17.06;58.54;98544.16;5039225;28;19929;-72
2023/09/06 07:13:46;;;;;;;;;;;;;;;17.06;59.53;98536.72;5054559;28;20386;-72
2023/09/06 07:16:14;;;;;;;;;;;;;;;17.18;59.46;98541.44;5042068;28;19960;-71
2023/09/06 07:18:42;;;;;;;;;;;;;;;17.28;58.75;98538.25;5045606;28;19925;-71
2023/09/06 07:21:10;;;;;;;;;;;;;;;17.28;58.53;98543.75;5048829;28;19928;-71
2023/09/06 07:23:38;;;;;;;;;;;;;;;17.37;58.91;98549.16;5046163;28;19925;-71
2023/09/06 07:26:08;;;;;;;;;;;;;;;17.36;57.88;98542.84;5053196;28;19939;-71
2023/09/06 07:28:37;;;;;;;;;;;;;;;17.48;58.21;98545.63;5053083;28;19928;-71
2023/09/06 07:31:04;;;;;;;;;;;;;;;17.49;59.55;98543.66;5044496;28;20455;-71
2023/09/06 07:33:32;;;;;;;;;;;;;;;17.55;57.61;98545.03;5049263;28;19932;-68
2023/09/06 07:36:00;;;;;;;;;;;;;;;17.62;58.88;98545.28;5045858;28;19932;-69
2023/09/06 07:38:27;;;;;;;;;;;;;;;17.68;57.55;98546.66;5046788;28;19929;-69
2023/09/06 07:40:56;;;;;;;;;;;;;;;17.74;57.90;98545.34;5051735;28;19929;-69
2023/09/06 07:43:26;;;;;;;;;;;;;;;17.86;56.96;98544.53;5048892;28;19977;-69
2023/09/06 07:45:53;;;;;;;;;;;;;;;17.89;56.63;98543.81;5040275;28;19935;-70
2023/09/06 07:48:21;;;;;;;;;;;;;;;17.93;56.18;98535.69;5046603;28;20432;-69
2023/09/06 07:50:50;;;;;;;;;;;;;;;17.97;55.91;98540.16;5045824;28;19930;-68
2023/09/06 07:53:17;;;;;;;;;;;;;;;18.08;56.42;98535.00;5046780;28;20382;-68
2023/09/06 07:55:45;;;;;;;;;;;;;;;18.13;56.16;98540.28;5055479;28;19978;-69
2023/09/06 07:58:13;;;;;;;;;;;;;;;18.20;55.47;98545.97;5068523;28;19962;-68
2023/09/06 08:00:42;;;;;;;;;;;;;;;18.31;55.40;98544.34;5062621;28;19929;-69
2023/09/06 08:03:10;;;;;;;;;;;;;;;18.46;55.48;98548.34;5069353;28;19989;-68
2023/09/06 08:05:38;;;;;;;;;;;;;;;18.51;55.09;98544.56;5068945;28;19929;-68
2023/09/06 08:08:08;;;;;;;;;;;;;;;18.57;54.22;98551.41;5064296;28;19932;-69
2023/09/06 08:10:36;;;;;;;;;;;;;;;18.63;53.98;98544.50;5058941;28;19928;-69
2023/09/06 08:13:04;;;;;;;;;;;;;;;18.72;54.71;98547.16;5066890;28;19924;-68
2023/09/06 08:15:32;;;;;;;;;;;;;;;18.82;54.79;98544.72;5065964;28;19947;-69
2023/09/06 08:18:03;;;;;;;;;;;;;;;18.87;54.47;98548.38;5080194;28;19931;-68
2023/09/06 08:20:31;;;;;;;;;;;;;;;18.91;54.87;98549.25;5077288;28;19928;-69
2023/09/06 08:22:59;;;;;;;;;;;;;;;19.02;54.45;98550.38;5069442;28;19936;-68
2023/09/06 08:25:26;;;;;;;;;;;;;;;19.05;53.26;98539.44;5073672;28;19928;-68
2023/09/06 08:27:54;;;;;;;;;;;;;;;19.05;53.20;98544.16;5082688;28;19932;-68
2023/09/06 08:30:22;;;;;;;;;;;;;;;19.07;51.66;98553.66;5072443;28;19928;-69
2023/09/06 08:32:51;;;;;;;;;;;;;;;19.10;52.35;98554.91;5073546;28;20054;-68
2023/09/06 08:35:20;;;;;;;;;;;;;;;19.22;51.57;98549.31;5074031;28;19931;-68
2023/09/06 08:37:48;;;;;;;;;;;;;;;19.27;52.88;98545.50;5070820;28;20369;-68
2023/09/06 08:40:16;;;;;;;;;;;;;;;19.34;52.00;98552.03;5068673;28;19977;-68
2023/09/06 08:42:44;;;;;;;;;;;;;;;19.46;51.90;98548.41;5072920;28;19972;-69
2023/09/06 08:45:12;;;;;;;;;;;;;;;19.52;52.44;98548.94;5066236;28;19947;-69
2023/09/06 08:47:40;;;;;;;;;;;;;;;19.62;52.46;98548.44;5075047;28;20431;-69
2023/09/06 08:50:10;;;;;;;;;;;;;;;19.65;52.03;98550.47;5072303;28;19931;-69
2023/09/06 08:52:43;;;;;;;;;;;;;;;19.71;52.13;98549.06;5063677;28;20295;-69
2023/09/06 08:55:11;;;;;;;;;;;;;;;19.76;51.54;98539.69;5076845;28;19924;-69
2023/09/06 08:57:39;;;;;;;;;;;;;;;19.83;51.00;98540.69;5071352;28;20513;-69
2023/09/06 09:00:09;;;;;;;;;;;;;;;19.89;51.33;98536.50;5065032;28;19923;-69
2023/09/06 09:02:40;;;;;;;;;;;;;;;20.02;51.56;98547.41;5068784;28;20416;-69
2023/09/06 09:05:08;;;;;;;;;;;;;;;20.05;52.19;98544.75;5071421;28;19981;-69
2023/09/06 09:07:50;;;;;;;;;;;;;;;20.08;50.95;98552.31;5077566;28;19955;-69
2023/09/06 09:10:21;;;;;;;;;;;;;;;20.17;50.62;98545.78;5075594;28;19924;-69
2023/09/06 09:12:49;;;;;;;;;;;;;;;20.25;51.34;98547.56;5068854;28;20350;-69
2023/09/06 09:15:20;;;;;;;;;;;;;;;20.28;51.58;98544.06;5068078;28;19931;-68
2023/09/06 09:17:51;;;;;;;;;;;;;;;20.32;51.76;98540.25;5071764;28;19935;-68
2023/09/06 09:20:21;;;;;;;;;;;;;;;20.35;50.66;98545.06;5064136;28;20001;-69
2023/09/06 09:22:51;;;;;;;;;;;;;;;20.45;50.82;98542.88;5067688;28;19958;-68
2023/09/06 09:25:23;;;;;;;;;;;;;;;20.52;51.36;98548.59;5081421;28;19973;-69
2023/09/06 09:27:55;;;;;;;;;;;;;;;20.51;51.82;98547.00;5066369;28;19939;-69
2023/09/06 09:30:23;;;;;;;;;;;;;;;20.59;50.46;98549.53;5064602;28;20649;-69
2023/09/06 09:32:56;;;;;;;;;;;;;;;20.62;51.08;98550.78;5069209;28;19936;-69
2023/09/06 09:35:26;;;;;;;;;;;;;;;20.68;51.56;98541.03;5071035;28;19932;-68
2023/09/06 09:37:56;;;;;;;;;;;;;;;20.69;51.63;98537.13;5072999;28;19950;-68
2023/09/06 09:40:32;;;;;;;;;;;;;;;20.70;51.87;98538.72;5069704;28;19925;-68
2023/09/06 09:43:05;;;;;;;;;;;;;;;20.82;51.17;98540.53;5065227;28;19950;-68
2023/09/06 09:45:39;;;;;;;;;;;;;;;20.85;51.93;98537.84;5063868;28;19928;-68
2023/09/06 09:48:07;;;;;;;;;;;;;;;20.92;52.14;98535.22;5072493;28;19932;-68
2023/09/06 09:50:36;;;;;;;;;;;;;;;20.95;51.01;98541.19;5072701;28;19925;-68
2023/09/06 09:53:05;;;;;;;;;;;;;;;21.10;50.78;98535.56;5070912;28;19928;-68
2023/09/06 09:55:47;;;;;;;;;;;;;;;21.09;51.28;98536.75;5069016;28;19932;-68
2023/09/06 09:58:15;;;;;;;;;;;;;;;21.13;51.36;98534.81;5069573;28;19924;-68
2023/09/06 10:00:43;;;;;;;;;;;;;;;21.18;51.38;98528.19;5063031;28;19933;-68
2023/09/06 10:03:10;;;;;;;;;;;;;;;21.21;51.61;98526.69;5067979;28;19933;-68
2023/09/06 10:05:39;;;;;;;;;;;;;;;21.21;51.69;98523.94;5067375;28;20298;-68
2023/09/06 10:08:09;;;;;;;;;;;;;;;21.27;50.75;98516.94;5070110;28;19925;-68
2023/09/06 10:10:37;;;;;;;;;;;;;;;21.32;51.63;98525.75;5069596;28;19928;-68
2023/09/06 10:13:07;;;;;;;;;;;;;;;21.40;50.76;98527.44;5070666;28;19925;-68
2023/09/06 10:15:36;;;;;;;;;;;;;;;21.49;49.92;98524.44;5063536;28;19928;-68
2023/09/06 10:18:05;;;;;;;;;;;;;;;21.45;51.47;98531.88;5072050;28;20499;-70
2023/09/06 10:20:34;;;;;;;;;;;;;;;21.50;51.30;98522.47;5074910;28;20377;-69
2023/09/06 10:23:04;;;;;;;;;;;;;;;21.53;51.07;98530.06;5077166;28;19931;-70
2023/09/06 10:25:33;;;;;;;;;;;;;;;21.61;51.14;98523.47;5077817;28;19924;-70
2023/09/06 10:28:01;;;;;;;;;;;;;;;21.70;49.84;98518.47;5073542;28;19924;-69
2023/09/06 10:30:42;;;;;;;;;;;;;;;21.77;49.03;98517.78;5066241;28;19928;-69
2023/09/06 10:33:10;;;;;;;;;;;;;;;21.76;50.88;98517.00;5065762;28;19924;-70
2023/09/06 10:35:41;;;;;;;;;;;;;;;21.82;51.12;98517.47;5069681;28;19939;-69
2023/09/06 10:38:10;;;;;;;;;;;;;;;21.86;50.02;98515.56;5068611;28;19940;-69
2023/09/06 10:41:10;;;;;;;;;;;;;;;21.92;50.74;98516.84;5070246;28;19978;-69
2023/09/06 10:43:53;;;;;;;;;;;;;;;21.96;50.94;98504.69;5069478;28;20577;-68
2023/09/06 10:46:26;;;;;;;;;;;;;;;22.02;50.63;98512.66;5072569;28;19981;-68
2023/09/06 10:49:12;;;;;;;;;;;;;;;22.09;48.54;98509.97;5066055;28;19929;-69
2023/09/06 10:51:55;;;;;;;;;;;;;;;22.14;49.00;98510.50;5062975;28;19932;-69
2023/09/06 10:54:26;;;;;;;;;;;;;;;22.17;52.74;98504.22;5076446;28;19981;-70
2023/09/06 10:56:59;;;;;;;;;;;;;;;22.15;48.87;98508.53;5065329;28;19935;-69
2023/09/06 10:59:27;;;;;;;;;;;;;;;22.17;48.52;98504.22;5071358;28;19928;-68
2023/09/06 11:02:07;;;;;;;;;;;;;;;22.21;46.60;98504.25;5066340;28;22670;-67
2023/09/06 11:04:37;;;;;;;;;;;;;;;22.20;46.15;98503.47;5072779;28;19924;-67
2023/09/06 11:07:10;;;;;;;;;;;;;;;22.29;44.49;98499.63;5066280;28;19988;-67
2023/09/06 11:09:43;;;;;;;;;;;;;;;22.28;45.16;98498.84;5071403;28;19928;-67
2023/09/06 11:12:13;;;;;;;;;;;;;;;22.33;44.84;98494.94;5060515;28;19925;-69
2023/09/06 11:14:41;;;;;;;;;;;;;;;22.35;44.69;98501.69;5058746;28;20390;-68
2023/09/06 11:17:09;;;;;;;;;;;;;;;22.37;45.41;98502.13;5058752;28;19932;-68
2023/09/06 11:19:36;;;;;;;;;;;;;;;22.43;46.00;98497.84;5069063;28;19932;-67
2023/09/06 11:22:06;;;;;;;;;;;;;;;22.47;46.35;98495.91;5067438;28;19930;-71
2023/09/06 11:24:34;;;;;;;;;;;;;;;22.47;47.93;98501.44;5080539;28;19928;-68
2023/09/06 11:27:05;;;;;;;;;;;;;;;22.56;47.14;98497.59;5068219;28;19924;-69
2023/09/06 11:29:34;;;;;;;;;;;;;;;22.56;47.45;98481.78;5071529;28;19928;-69
2023/09/06 11:32:08;;;;;;;;;;;;;;;22.60;47.48;98481.84;5076597;28;20400;-69
2023/09/06 11:34:41;;;;;;;;;;;;;;;22.66;49.48;98483.09;5073674;28;19992;-69
2023/09/06 11:37:12;;;;;;;;;;;;;;;22.71;48.49;98489.09;5078254;28;19928;-69
2023/09/06 11:39:41;;;;;;;;;;;;;;;22.79;48.05;98489.16;5068951;28;19931;-68
2023/09/06 11:42:11;;;;;;;;;;;;;;;22.77;48.97;98484.03;5081332;28;19925;-69
2023/09/06 11:44:43;;;;;;;;;;;;;;;22.74;48.17;98482.81;5072858;28;19929;-69
2023/09/06 11:47:11;;;;;;;;;;;;;;;22.82;47.12;98475.38;5075435;28;19929;-69
2023/09/06 11:49:40;;;;;;;;;;;;;;;22.87;47.39;98477.81;5071433;28;20007;-69
2023/09/06 11:52:08;;;;;;;;;;;;;;;23.07;47.51;98483.19;5085498;28;19924;-69
2023/09/06 11:54:38;;;;;;;;;;;;;;;23.04;48.06;98475.63;5071910;28;19951;-69
2023/09/06 11:57:08;;;;;;;;;;;;;;;23.08;46.90;98468.16;5052483;28;20405;-69
2023/09/06 11:59:37;;;;;;;;;;;;;;;23.07;47.35;98466.56;5055077;28;19928;-69
2023/09/06 12:02:07;;;;;;;;;;;;;;;23.17;47.29;98465.84;5051070;28;20259;-69
2023/09/06 12:04:35;;;;;;;;;;;;;;;23.18;47.83;98461.91;5053044;28;19970;-69
2023/09/06 12:07:07;;;;;;;;;;;;;;;23.19;47.49;98463.50;5050169;28;19933;-68
2023/09/06 12:09:36;;;;;;;;;;;;;;;23.21;47.01;98450.06;5058994;28;19936;-68
2023/09/06 12:12:05;;;;;;;;;;;;;;;23.14;48.13;98458.31;5056860;28;19933;-69
2023/09/06 12:14:33;;;;;;;;;;;;;;;23.19;46.58;98447.66;5054895;28;19997;-68
2023/09/06 12:17:01;;;;;;;;;;;;;;;23.37;45.95;98442.28;5054006;28;20445;-67
2023/09/06 12:19:30;;;;;;;;;;;;;;;23.37;47.23;98442.28;5060771;28;20410;-69
2023/09/06 12:21:59;;;;;;;;;;;;;;;23.49;45.93;98444.78;5062417;28;19924;-70
2023/09/06 12:24:26;;;;;;;;;;;;;;;23.53;45.86;98442.00;5052061;28;20378;-68
2023/09/06 12:26:55;;;;;;;;;;;;;;;23.44;47.01;98436.81;5065238;28;19925;-68
2023/09/06 12:29:23;;;;;;;;;;;;;;;23.52;46.93;98443.97;5051767;28;19932;-68
2023/09/06 12:31:50;;;;;;;;;;;;;;;23.53;45.75;98439.22;5053102;28;19932;-68
2023/09/06 12:34:18;;;;;;;;;;;;;;;23.53;47.04;98440.03;5067180;28;20301;-68
2023/09/06 12:36:47;;;;;;;;;;;;;;;23.51;47.13;98442.41;5061669;28;19933;-68
2023/09/06 12:39:18;;;;;;;;;;;;;;;23.44;47.54;98434.03;5056726;28;19933;-68
2023/09/06 12:41:45;;;;;;;;;;;;;;;23.44;47.77;98439.56;5055125;28;20301;-68
2023/09/06 12:44:14;;;;;;;;;;;;;;;23.58;45.96;98438.09;5054601;28;20306;-68
2023/09/06 12:46:42;;;;;;;;;;;;;;;23.76;44.68;98428.75;5050574;28;19932;-68
2023/09/06 12:49:10;;;;;;;;;;;;;;;23.64;45.59;98429.03;5052994;28;20283;-68
2023/09/06 12:51:38;;;;;;;;;;;;;;;23.70;44.51;98432.25;5054358;28;19954;-68
2023/09/06 12:54:08;;;;;;;;;;;;;;;23.72;45.62;98424.34;5058475;28;19924;-68
2023/09/06 12:56:35;;;;;;;;;;;;;;;23.83;44.46;98424.41;5061071;28;20400;-68
2023/09/06 12:59:04;;;;;;;;;;;;;;;23.78;45.41;98428.34;5057288;28;20399;-68
2023/09/06 13:01:32;;;;;;;;;;;;;;;23.80;44.13;98414.88;5051064;28;19978;-68